createdAt,value
2022-12-12T00:00:11.569Z,405
2022-12-12T00:01:11.584Z,405
2022-12-12T00:02:11.686Z,405
2022-12-12T00:03:11.876Z,405
2022-12-12T00:04:11.570Z,405
2022-12-12T00:05:11.761Z,405
2022-12-12T00:06:11.576Z,405
2022-12-12T00:07:11.561Z,405
2022-12-12T00:08:11.808Z,405
2022-12-12T00:09:11.552Z,416
2022-12-12T00:10:11.576Z,416
2022-12-12T00:11:11.563Z,416
2022-12-12T00:12:11.566Z,416
2022-12-12T00:13:11.760Z,416
2022-12-12T00:14:11.582Z,457
2022-12-12T00:15:11.832Z,405
2022-12-12T00:16:11.610Z,405
2022-12-12T00:17:11.594Z,405
2022-12-12T00:18:11.761Z,405
2022-12-12T00:19:11.567Z,422
2022-12-12T00:20:11.582Z,422
2022-12-12T00:21:11.588Z,425
2022-12-12T00:22:11.562Z,426
2022-12-12T00:23:11.736Z,422
2022-12-12T00:24:11.565Z,405
2022-12-12T00:25:11.917Z,405
2022-12-12T00:26:11.582Z,405
2022-12-12T00:27:11.583Z,405
2022-12-12T00:28:11.745Z,405
2022-12-12T00:29:11.593Z,410
2022-12-12T00:30:11.561Z,410
2022-12-12T00:31:11.591Z,410
2022-12-12T00:32:11.601Z,410
2022-12-12T00:33:11.766Z,410
2022-12-12T00:34:11.562Z,447
2022-12-12T00:35:11.801Z,436
2022-12-12T00:36:11.565Z,436
2022-12-12T00:37:11.592Z,460
2022-12-12T00:38:11.751Z,436
2022-12-12T00:39:15.238Z,443
2022-12-12T00:40:11.591Z,443
2022-12-12T00:41:11.610Z,443
2022-12-12T00:42:11.596Z,443
2022-12-12T00:43:11.783Z,443
2022-12-12T00:44:11.594Z,450
2022-12-12T00:45:11.781Z,450
2022-12-12T00:46:11.647Z,450
2022-12-12T00:47:11.597Z,450
2022-12-12T00:48:11.769Z,450
2022-12-12T00:49:11.577Z,410
2022-12-12T00:50:11.600Z,410
2022-12-12T00:51:11.599Z,411
2022-12-12T00:52:11.577Z,411
2022-12-12T00:53:11.777Z,423
2022-12-12T00:54:11.570Z,436
2022-12-12T00:55:11.806Z,436
2022-12-12T00:56:11.564Z,436
2022-12-12T00:57:11.645Z,436
2022-12-12T00:58:11.764Z,436
2022-12-12T00:59:11.570Z,436
2022-12-12T01:00:11.579Z,436
2022-12-12T01:01:11.609Z,436
2022-12-12T01:02:11.572Z,436
2022-12-12T01:03:11.795Z,436
2022-12-12T01:04:11.608Z,422
2022-12-12T01:05:11.736Z,422
2022-12-12T01:06:11.597Z,422
2022-12-12T01:07:11.581Z,425
2022-12-12T01:08:11.801Z,422
2022-12-12T01:09:11.600Z,443
2022-12-12T01:10:11.594Z,443
2022-12-12T01:11:11.587Z,443
2022-12-12T01:12:11.602Z,443
2022-12-12T01:13:11.763Z,443
2022-12-12T01:14:11.597Z,422
2022-12-12T01:15:11.781Z,422
2022-12-12T01:16:11.632Z,422
2022-12-12T01:17:11.586Z,447
2022-12-12T01:18:11.779Z,443
2022-12-12T01:19:11.603Z,493
2022-12-12T01:20:11.610Z,450
2022-12-12T01:21:11.633Z,450
2022-12-12T01:22:11.573Z,450
2022-12-12T01:23:11.760Z,450
2022-12-12T01:24:11.584Z,443
2022-12-12T01:25:11.821Z,447
2022-12-12T01:26:11.591Z,443
2022-12-12T01:27:11.580Z,443
2022-12-12T01:28:11.804Z,443
2022-12-12T01:29:11.596Z,450
2022-12-12T01:30:11.605Z,450
2022-12-12T01:31:11.684Z,450
2022-12-12T01:32:11.608Z,450
2022-12-12T01:33:11.790Z,450
2022-12-12T01:34:11.617Z,428
2022-12-12T01:35:11.817Z,428
2022-12-12T01:36:11.609Z,428
2022-12-12T01:37:11.615Z,428
2022-12-12T01:38:11.804Z,428
2022-12-12T01:39:11.601Z,416
2022-12-12T01:40:11.583Z,416
2022-12-12T01:41:11.619Z,416
2022-12-12T01:42:11.593Z,416
2022-12-12T01:43:11.788Z,416
2022-12-12T01:44:11.590Z,422
2022-12-12T01:45:11.816Z,422
2022-12-12T01:46:11.670Z,422
2022-12-12T01:47:11.615Z,422
2022-12-12T01:48:11.768Z,422
2022-12-12T01:49:11.617Z,464
2022-12-12T01:50:11.586Z,450
2022-12-12T01:51:11.618Z,450
2022-12-12T01:52:11.586Z,450
2022-12-12T01:53:11.809Z,450
2022-12-12T01:54:11.610Z,436
2022-12-12T01:55:11.810Z,436
2022-12-12T01:56:11.609Z,436
2022-12-12T01:57:11.579Z,436
2022-12-12T01:58:11.803Z,436
2022-12-12T01:59:11.610Z,428
2022-12-12T02:00:11.662Z,428
2022-12-12T02:01:11.641Z,442
2022-12-12T02:02:11.659Z,428
2022-12-12T02:03:11.792Z,428
2022-12-12T02:04:11.600Z,456
2022-12-12T02:05:11.807Z,454
2022-12-12T02:06:11.588Z,428
2022-12-12T02:07:11.592Z,454
2022-12-12T02:08:11.841Z,428
2022-12-12T02:09:11.625Z,416
2022-12-12T02:10:11.618Z,416
2022-12-12T02:11:11.626Z,416
2022-12-12T02:12:11.584Z,416
2022-12-12T02:13:11.771Z,416
2022-12-12T02:14:11.620Z,405
2022-12-12T02:15:11.856Z,405
2022-12-12T02:16:11.605Z,405
2022-12-12T02:17:11.604Z,405
2022-12-12T02:18:12.931Z,405
2022-12-12T02:19:11.603Z,400
2022-12-12T02:20:11.629Z,400
2022-12-12T02:21:11.619Z,400
2022-12-12T02:22:11.610Z,400
2022-12-12T02:23:11.803Z,400
2022-12-12T02:24:11.629Z,405
2022-12-12T02:25:11.807Z,405
2022-12-12T02:26:11.633Z,405
2022-12-12T02:27:11.618Z,418
2022-12-12T02:28:11.809Z,405
2022-12-12T02:29:11.610Z,428
2022-12-12T02:30:11.594Z,428
2022-12-12T02:31:11.652Z,428
2022-12-12T02:32:11.606Z,428
2022-12-12T02:33:11.803Z,428
2022-12-12T02:34:11.618Z,450
2022-12-12T02:35:11.934Z,450
2022-12-12T02:36:11.636Z,505
2022-12-12T02:37:11.600Z,450
2022-12-12T02:38:11.783Z,450
2022-12-12T02:39:11.593Z,410
2022-12-12T02:40:11.630Z,410
2022-12-12T02:41:11.637Z,410
2022-12-12T02:42:11.632Z,428
2022-12-12T02:43:11.784Z,410
2022-12-12T02:44:11.612Z,451
2022-12-12T02:45:11.856Z,450
2022-12-12T02:46:11.696Z,450
2022-12-12T02:47:11.606Z,450
2022-12-12T02:48:11.809Z,450
2022-12-12T02:49:11.623Z,456
2022-12-12T02:50:11.601Z,456
2022-12-12T02:51:11.629Z,456
2022-12-12T02:52:11.639Z,456
2022-12-12T02:53:11.815Z,456
2022-12-12T02:54:11.600Z,454
2022-12-12T02:55:11.811Z,450
2022-12-12T02:56:11.633Z,450
2022-12-12T02:57:11.639Z,450
2022-12-12T02:58:11.799Z,450
2022-12-12T02:59:11.637Z,410
2022-12-12T03:00:11.645Z,410
2022-12-12T03:01:11.735Z,410
2022-12-12T03:02:11.704Z,410
2022-12-12T03:03:11.815Z,410
2022-12-12T03:04:11.615Z,416
2022-12-12T03:05:11.832Z,416
2022-12-12T03:06:11.603Z,416
2022-12-12T03:07:11.620Z,416
2022-12-12T03:08:11.849Z,416
2022-12-12T03:09:11.638Z,410
2022-12-12T03:10:11.616Z,410
2022-12-12T03:11:11.627Z,410
2022-12-12T03:12:11.620Z,410
2022-12-12T03:13:11.817Z,410
2022-12-12T03:14:11.623Z,405
2022-12-12T03:15:11.993Z,405
2022-12-12T03:16:11.690Z,405
2022-12-12T03:17:11.625Z,405
2022-12-12T03:18:11.816Z,405
2022-12-12T03:19:11.615Z,400
2022-12-12T03:20:11.641Z,400
2022-12-12T03:21:11.619Z,400
2022-12-12T03:22:11.614Z,400
2022-12-12T03:23:11.817Z,400
2022-12-12T03:24:11.621Z,400
2022-12-12T03:25:12.014Z,400
2022-12-12T03:26:11.636Z,400
2022-12-12T03:27:11.649Z,400
2022-12-12T03:28:11.849Z,400
2022-12-12T03:29:11.653Z,405
2022-12-12T03:30:11.639Z,405
2022-12-12T03:31:11.727Z,405
2022-12-12T03:32:11.617Z,405
2022-12-12T03:33:11.825Z,405
2022-12-12T03:34:11.652Z,400
2022-12-12T03:35:11.815Z,400
2022-12-12T03:36:11.645Z,400
2022-12-12T03:37:11.617Z,400
2022-12-12T03:38:11.827Z,400
2022-12-12T03:39:11.650Z,411
2022-12-12T03:40:11.647Z,411
2022-12-12T03:41:11.618Z,411
2022-12-12T03:42:11.623Z,411
2022-12-12T03:43:11.829Z,411
2022-12-12T03:44:11.625Z,434
2022-12-12T03:45:11.958Z,434
2022-12-12T03:46:11.723Z,434
2022-12-12T03:48:11.834Z,434
2022-12-12T03:49:11.644Z,422
2022-12-12T03:50:11.658Z,422
2022-12-12T03:51:11.635Z,422
2022-12-12T03:52:11.637Z,422
2022-12-12T03:53:11.826Z,422
2022-12-12T03:54:11.652Z,411
2022-12-12T03:55:11.976Z,411
2022-12-12T03:56:11.657Z,411
2022-12-12T03:57:11.619Z,411
2022-12-12T03:58:11.801Z,411
2022-12-12T03:59:11.679Z,406
2022-12-12T04:00:11.628Z,406
2022-12-12T04:01:11.726Z,406
2022-12-12T04:02:11.702Z,406
2022-12-12T04:03:11.836Z,406
2022-12-12T04:04:11.652Z,427
2022-12-12T04:05:11.870Z,427
2022-12-12T04:06:11.629Z,427
2022-12-12T04:07:11.644Z,427
2022-12-12T04:08:11.890Z,427
2022-12-12T04:09:11.623Z,446
2022-12-12T04:10:11.658Z,446
2022-12-12T04:11:11.654Z,446
2022-12-12T04:12:11.662Z,446
2022-12-12T04:13:11.810Z,446
2022-12-12T04:14:11.652Z,475
2022-12-12T04:15:11.872Z,475
2022-12-12T04:16:11.667Z,475
2022-12-12T04:17:11.618Z,475
2022-12-12T04:18:11.844Z,475
2022-12-12T04:19:11.639Z,460
2022-12-12T04:20:11.717Z,460
2022-12-12T04:21:11.643Z,460
2022-12-12T04:22:15.351Z,460
2022-12-12T04:23:11.839Z,460
2022-12-12T04:24:11.648Z,460
2022-12-12T04:25:11.838Z,446
2022-12-12T04:26:11.627Z,446
2022-12-12T04:27:11.642Z,446
2022-12-12T04:28:11.810Z,455
2022-12-12T04:29:11.633Z,483
2022-12-12T04:30:11.662Z,491
2022-12-12T04:31:11.638Z,452
2022-12-12T04:33:11.831Z,452
2022-12-12T04:34:11.649Z,475
2022-12-12T04:35:11.923Z,475
2022-12-12T04:36:11.658Z,475
2022-12-12T04:38:11.839Z,475
2022-12-12T04:39:11.668Z,475
2022-12-12T04:40:11.659Z,475
2022-12-12T04:41:11.666Z,475
2022-12-12T04:42:11.642Z,475
2022-12-12T04:43:11.869Z,475
2022-12-12T04:44:11.637Z,452
2022-12-12T04:45:11.911Z,452
2022-12-12T04:46:11.683Z,452
2022-12-12T04:47:11.639Z,452
2022-12-12T04:48:11.818Z,452
2022-12-12T04:49:11.671Z,400
2022-12-12T04:50:11.720Z,400
2022-12-12T04:51:11.637Z,400
2022-12-12T04:52:11.666Z,400
2022-12-12T04:53:16.527Z,400
2022-12-12T04:54:11.670Z,422
2022-12-12T04:55:11.934Z,422
2022-12-12T04:56:11.654Z,422
2022-12-12T04:58:11.846Z,422
2022-12-12T04:59:11.661Z,548
2022-12-12T05:00:11.692Z,501
2022-12-12T05:01:11.694Z,457
2022-12-12T05:03:11.858Z,457
2022-12-12T05:04:11.647Z,464
2022-12-12T05:05:12.017Z,464
2022-12-12T05:06:11.672Z,464
2022-12-12T05:07:11.669Z,464
2022-12-12T05:08:11.908Z,464
2022-12-12T05:09:11.665Z,451
2022-12-12T05:10:11.678Z,451
2022-12-12T05:11:11.670Z,451
2022-12-12T05:13:11.865Z,451
2022-12-12T05:14:11.642Z,451
2022-12-12T05:15:11.945Z,451
2022-12-12T05:16:11.714Z,451
2022-12-12T05:17:11.660Z,451
2022-12-12T05:18:11.853Z,451
2022-12-12T05:19:11.661Z,422
2022-12-12T05:20:11.667Z,422
2022-12-12T05:21:11.681Z,422
2022-12-12T05:22:11.674Z,422
2022-12-12T05:23:11.828Z,422
2022-12-12T05:24:11.676Z,422
2022-12-12T05:25:11.877Z,422
2022-12-12T05:26:11.678Z,422
2022-12-12T05:27:11.658Z,422
2022-12-12T05:28:11.871Z,422
2022-12-12T05:29:11.656Z,439
2022-12-12T05:30:11.664Z,439
2022-12-12T05:31:11.729Z,439
2022-12-12T05:32:11.679Z,439
2022-12-12T05:33:11.836Z,439
2022-12-12T05:34:11.679Z,464
2022-12-12T05:35:12.059Z,464
2022-12-12T05:36:11.725Z,464
2022-12-12T05:37:11.647Z,464
2022-12-12T05:38:11.834Z,464
2022-12-12T05:39:11.675Z,480
2022-12-12T05:40:11.686Z,480
2022-12-12T05:41:11.708Z,480
2022-12-12T05:43:11.865Z,480
2022-12-12T05:44:11.671Z,464
2022-12-12T05:45:11.910Z,464
2022-12-12T05:46:11.724Z,464
2022-12-12T05:47:11.688Z,464
2022-12-12T05:48:11.871Z,464
2022-12-12T05:49:11.673Z,445
2022-12-12T05:50:11.683Z,445
2022-12-12T05:51:11.664Z,445
2022-12-12T05:53:11.855Z,445
2022-12-12T05:54:11.658Z,464
2022-12-12T05:55:11.899Z,464
2022-12-12T05:56:11.710Z,464
2022-12-12T05:58:11.833Z,533
2022-12-12T05:59:11.665Z,501
2022-12-12T06:00:11.652Z,586
2022-12-12T06:01:11.677Z,584
2022-12-12T06:03:11.839Z,545
2022-12-12T06:04:11.753Z,549
2022-12-12T06:05:11.996Z,530
2022-12-12T06:06:11.691Z,530
2022-12-12T06:08:11.929Z,530
2022-12-12T06:09:11.678Z,487
2022-12-12T06:10:11.668Z,487
2022-12-12T06:11:11.691Z,487
2022-12-12T06:13:11.870Z,487
2022-12-12T06:14:11.668Z,464
2022-12-12T06:15:11.865Z,464
2022-12-12T06:16:11.699Z,464
2022-12-12T06:18:11.872Z,464
2022-12-12T06:19:11.683Z,464
2022-12-12T06:20:11.694Z,464
2022-12-12T06:21:11.701Z,464
2022-12-12T06:23:11.876Z,464
2022-12-12T06:24:11.668Z,457
2022-12-12T06:25:12.019Z,457
2022-12-12T06:26:11.675Z,457
2022-12-12T06:28:11.844Z,457
2022-12-12T06:29:11.712Z,445
2022-12-12T06:30:11.679Z,445
2022-12-12T06:31:12.237Z,445
2022-12-12T06:33:11.883Z,445
2022-12-12T06:34:11.711Z,473
2022-12-12T06:35:11.935Z,473
2022-12-12T06:36:11.685Z,473
2022-12-12T06:38:11.870Z,473
2022-12-12T06:39:11.691Z,473
2022-12-12T06:40:11.683Z,473
2022-12-12T06:41:11.700Z,473
2022-12-12T06:43:11.878Z,473
2022-12-12T06:44:11.685Z,451
2022-12-12T06:45:11.912Z,451
2022-12-12T06:46:11.749Z,451
2022-12-12T06:48:11.854Z,451
2022-12-12T06:49:11.702Z,434
2022-12-12T06:50:11.691Z,434
2022-12-12T06:51:11.683Z,434
2022-12-12T06:53:11.883Z,434
2022-12-12T06:54:11.725Z,422
2022-12-12T06:55:11.918Z,422
2022-12-12T06:56:11.733Z,422
2022-12-12T06:58:11.880Z,422
2022-12-12T06:59:11.683Z,445
2022-12-12T07:00:11.687Z,445
2022-12-12T07:01:11.711Z,445
2022-12-12T07:03:11.919Z,445
2022-12-12T07:04:11.705Z,439
2022-12-12T07:05:11.909Z,439
2022-12-12T07:06:11.712Z,439
2022-12-12T07:08:11.925Z,439
2022-12-12T07:09:11.709Z,434
2022-12-12T07:10:11.709Z,434
2022-12-12T07:11:11.712Z,434
2022-12-12T07:13:11.888Z,434
2022-12-12T07:14:11.686Z,464
2022-12-12T07:15:11.904Z,464
2022-12-12T07:16:11.729Z,464
2022-12-12T07:18:11.895Z,464
2022-12-12T07:19:11.701Z,464
2022-12-12T07:20:11.689Z,464
2022-12-12T07:21:11.695Z,464
2022-12-12T07:23:11.865Z,464
2022-12-12T07:24:11.732Z,480
2022-12-12T07:25:11.923Z,480
2022-12-12T07:26:11.719Z,480
2022-12-12T07:28:11.891Z,480
2022-12-12T07:29:11.689Z,487
2022-12-12T07:30:11.699Z,487
2022-12-12T07:31:11.759Z,487
2022-12-12T07:33:11.890Z,487
2022-12-12T07:34:11.717Z,480
2022-12-12T07:35:11.882Z,480
2022-12-12T07:36:11.676Z,480
2022-12-12T07:38:11.865Z,480
2022-12-12T07:39:14.615Z,495
2022-12-12T07:40:11.707Z,495
2022-12-12T07:41:11.721Z,495
2022-12-12T07:43:11.900Z,495
2022-12-12T07:44:11.695Z,451
2022-12-12T07:45:16.567Z,451
2022-12-12T07:46:11.754Z,465
2022-12-12T07:48:11.900Z,505
2022-12-12T07:49:11.687Z,480
2022-12-12T07:50:11.694Z,480
2022-12-12T07:51:11.692Z,480
2022-12-12T07:53:11.865Z,480
2022-12-12T07:54:11.768Z,451
2022-12-12T07:55:11.952Z,451
2022-12-12T07:56:11.695Z,451
2022-12-12T07:58:11.874Z,451
2022-12-12T07:59:11.727Z,457
2022-12-12T08:00:11.697Z,457
2022-12-12T08:01:14.549Z,457
2022-12-12T08:03:11.905Z,457
2022-12-12T08:04:11.712Z,416
2022-12-12T08:05:12.026Z,416
2022-12-12T08:06:11.736Z,416
2022-12-12T08:08:11.920Z,416
2022-12-12T08:09:11.716Z,445
2022-12-12T08:10:11.701Z,445
2022-12-12T08:11:11.714Z,445
2022-12-12T08:13:11.901Z,445
2022-12-12T08:14:13.190Z,451
2022-12-12T08:15:12.039Z,451
2022-12-12T08:16:11.775Z,451
2022-12-12T08:18:11.898Z,451
2022-12-12T08:19:11.733Z,451
2022-12-12T08:20:11.700Z,451
2022-12-12T08:21:11.722Z,451
2022-12-12T08:23:11.876Z,451
2022-12-12T08:24:11.709Z,439
2022-12-12T08:25:11.912Z,439
2022-12-12T08:26:11.714Z,439
2022-12-12T08:28:11.903Z,439
2022-12-12T08:29:11.733Z,457
2022-12-12T08:30:11.711Z,457
2022-12-12T08:31:11.772Z,457
2022-12-12T08:33:11.911Z,457
2022-12-12T08:34:11.716Z,464
2022-12-12T08:35:12.073Z,464
2022-12-12T08:36:11.715Z,464
2022-12-12T08:38:11.913Z,464
2022-12-12T08:39:11.732Z,445
2022-12-12T08:40:11.715Z,445
2022-12-12T08:41:11.765Z,445
2022-12-12T08:43:11.910Z,445
2022-12-12T08:44:11.721Z,410
2022-12-12T08:45:11.981Z,410
2022-12-12T08:46:16.956Z,410
2022-12-12T08:48:11.895Z,410
2022-12-12T08:49:11.709Z,400
2022-12-12T08:50:11.704Z,400
2022-12-12T08:51:11.720Z,400
2022-12-12T08:53:11.888Z,400
2022-12-12T08:54:11.718Z,441
2022-12-12T08:55:11.992Z,441
2022-12-12T08:56:11.701Z,441
2022-12-12T08:58:11.895Z,441
2022-12-12T08:59:11.711Z,486
2022-12-12T09:00:11.711Z,486
2022-12-12T09:01:11.742Z,486
2022-12-12T09:03:11.928Z,486
2022-12-12T09:04:11.703Z,520
2022-12-12T09:05:11.924Z,520
2022-12-12T09:06:11.727Z,520
2022-12-12T09:08:11.959Z,520
2022-12-12T09:09:11.761Z,520
2022-12-12T09:10:11.745Z,520
2022-12-12T09:11:11.710Z,520
2022-12-12T09:13:11.931Z,520
2022-12-12T09:14:11.746Z,537
2022-12-12T09:15:12.004Z,537
2022-12-12T09:16:11.774Z,537
2022-12-12T09:18:11.924Z,537
2022-12-12T09:19:11.710Z,556
2022-12-12T09:20:11.751Z,555
2022-12-12T09:21:11.746Z,555
2022-12-12T09:23:11.933Z,555
2022-12-12T09:24:11.749Z,566
2022-12-12T09:25:12.047Z,566
2022-12-12T09:26:11.709Z,566
2022-12-12T09:28:11.899Z,566
2022-12-12T09:29:11.744Z,495
2022-12-12T09:30:11.730Z,495
2022-12-12T09:31:11.786Z,495
2022-12-12T09:33:11.930Z,495
2022-12-12T09:34:11.719Z,495
2022-12-12T09:35:11.923Z,495
2022-12-12T09:36:11.729Z,495
2022-12-12T09:38:14.502Z,495
2022-12-12T09:39:11.755Z,486
2022-12-12T09:40:11.755Z,486
2022-12-12T09:41:11.718Z,486
2022-12-12T09:43:11.948Z,486
2022-12-12T09:44:11.760Z,555
2022-12-12T09:45:11.981Z,555
2022-12-12T09:46:11.787Z,555
2022-12-12T09:48:11.937Z,555
2022-12-12T09:49:11.752Z,546
2022-12-12T09:50:12.198Z,546
2022-12-12T09:51:11.741Z,546
2022-12-12T09:53:11.911Z,546
2022-12-12T09:54:11.756Z,480
2022-12-12T09:55:11.737Z,480
2022-12-12T09:56:11.760Z,480
2022-12-12T09:58:11.916Z,480
2022-12-12T09:59:11.759Z,530
2022-12-12T10:00:12.035Z,530
2022-12-12T10:01:11.785Z,530
2022-12-12T10:03:11.910Z,530
2022-12-12T10:04:11.738Z,537
2022-12-12T10:05:11.733Z,537
2022-12-12T10:06:36.297Z,537
2022-12-12T10:08:11.970Z,537
2022-12-12T10:09:11.743Z,555
2022-12-12T10:10:12.086Z,555
2022-12-12T10:11:11.731Z,555
2022-12-12T10:13:11.938Z,555
2022-12-12T10:14:11.747Z,546
2022-12-12T10:15:11.953Z,546
2022-12-12T10:16:11.769Z,546
2022-12-12T10:18:11.916Z,546
2022-12-12T10:19:11.737Z,508
2022-12-12T10:20:11.993Z,508
2022-12-12T10:21:11.739Z,508
2022-12-12T10:23:11.923Z,508
2022-12-12T10:24:11.759Z,546
2022-12-12T10:25:11.746Z,546
2022-12-12T10:26:11.768Z,546
2022-12-12T10:28:11.923Z,546
2022-12-12T10:29:11.748Z,537
2022-12-12T10:30:12.038Z,537
2022-12-12T10:31:11.824Z,537
2022-12-12T10:33:11.959Z,537
2022-12-12T10:34:11.747Z,495
2022-12-12T10:35:17.055Z,495
2022-12-12T10:36:11.753Z,495
2022-12-12T10:38:11.945Z,495
2022-12-12T10:39:11.772Z,457
2022-12-12T10:40:11.750Z,457
2022-12-12T10:41:11.744Z,457
2022-12-12T10:43:11.974Z,457
2022-12-12T10:44:11.789Z,495
2022-12-12T10:45:12.178Z,495
2022-12-12T10:46:11.833Z,495
2022-12-12T10:48:11.953Z,495
2022-12-12T10:49:11.771Z,501
2022-12-12T10:50:13.239Z,501
2022-12-12T10:51:11.777Z,501
2022-12-12T10:53:11.950Z,501
2022-12-12T10:54:11.778Z,520
2022-12-12T10:55:12.091Z,520
2022-12-12T10:56:11.746Z,520
2022-12-12T10:58:11.926Z,520
2022-12-12T10:59:11.772Z,546
2022-12-12T11:00:11.775Z,546
2022-12-12T11:01:11.819Z,546
2022-12-12T11:03:12.054Z,546
2022-12-12T11:04:11.758Z,480
2022-12-12T11:05:12.093Z,480
2022-12-12T11:06:11.767Z,480
2022-12-12T11:08:11.955Z,480
2022-12-12T11:09:11.754Z,486
2022-12-12T11:10:11.757Z,486
2022-12-12T11:11:11.780Z,486
2022-12-12T11:13:11.940Z,486
2022-12-12T11:14:11.786Z,463
2022-12-12T11:15:12.041Z,463
2022-12-12T11:16:13.425Z,463
2022-12-12T11:18:11.926Z,463
2022-12-12T11:19:11.755Z,501
2022-12-12T11:20:11.777Z,501
2022-12-12T11:21:11.789Z,501
2022-12-12T11:23:16.645Z,501
2022-12-12T11:24:11.827Z,508
2022-12-12T11:25:11.975Z,508
2022-12-12T11:26:11.756Z,508
2022-12-12T11:28:11.988Z,508
2022-12-12T11:29:11.754Z,508
2022-12-12T11:30:11.788Z,508
2022-12-12T11:31:11.752Z,508
2022-12-12T11:33:11.968Z,508
2022-12-12T11:34:11.770Z,530
2022-12-12T11:35:12.186Z,530
2022-12-12T11:36:11.753Z,530
2022-12-12T11:38:11.965Z,530
2022-12-12T11:39:11.757Z,530
2022-12-12T11:40:11.779Z,530
2022-12-12T11:41:11.793Z,530
2022-12-12T11:43:11.937Z,530
2022-12-12T11:44:14.449Z,530
2022-12-12T11:45:12.060Z,530
2022-12-12T11:46:11.779Z,530
2022-12-12T11:48:11.973Z,530
2022-12-12T11:49:11.772Z,495
2022-12-12T11:50:11.796Z,495
2022-12-12T11:51:11.789Z,495
2022-12-12T11:53:11.976Z,495
2022-12-12T11:54:11.771Z,473
2022-12-12T11:55:11.996Z,473
2022-12-12T11:56:11.763Z,473
2022-12-12T11:58:11.974Z,473
2022-12-12T11:59:11.783Z,537
2022-12-12T12:00:11.796Z,537
2022-12-12T12:01:11.773Z,537
2022-12-12T12:03:12.005Z,537
2022-12-12T12:04:11.804Z,537
2022-12-12T12:05:12.130Z,537
2022-12-12T12:06:11.792Z,537
2022-12-12T12:08:12.019Z,537
2022-12-12T12:09:11.800Z,463
2022-12-12T12:10:11.797Z,463
2022-12-12T12:11:11.771Z,463
2022-12-12T12:13:11.980Z,463
2022-12-12T12:14:11.809Z,456
2022-12-12T12:15:11.943Z,456
2022-12-12T12:16:11.793Z,456
2022-12-12T12:18:11.978Z,456
2022-12-12T12:19:11.798Z,508
2022-12-12T12:20:11.766Z,508
2022-12-12T12:21:11.805Z,508
2022-12-12T12:23:11.986Z,508
2022-12-12T12:24:11.802Z,492
2022-12-12T12:25:12.038Z,492
2022-12-12T12:26:11.785Z,492
2022-12-12T12:28:11.951Z,492
2022-12-12T12:29:11.817Z,530
2022-12-12T12:30:11.794Z,530
2022-12-12T12:31:11.825Z,642
2022-12-12T12:33:11.983Z,530
2022-12-12T12:34:11.805Z,546
2022-12-12T12:35:12.129Z,546
2022-12-12T12:36:13.116Z,546
2022-12-12T12:38:11.982Z,546
2022-12-12T12:39:11.793Z,508
2022-12-12T12:40:11.808Z,508
2022-12-12T12:41:11.788Z,508
2022-12-12T12:43:11.997Z,508
2022-12-12T12:44:11.783Z,520
2022-12-12T12:45:12.147Z,520
2022-12-12T12:46:11.904Z,520
2022-12-12T12:48:11.996Z,520
2022-12-12T12:49:11.789Z,495
2022-12-12T12:50:12.028Z,495
2022-12-12T12:51:11.812Z,495
2022-12-12T12:53:11.968Z,495
2022-12-12T12:54:11.789Z,508
2022-12-12T12:55:12.125Z,508
2022-12-12T12:56:11.815Z,508
2022-12-12T12:58:11.995Z,508
2022-12-12T12:59:11.809Z,546
2022-12-12T13:00:12.394Z,546
2022-12-12T13:01:11.829Z,546
2022-12-12T13:03:12.036Z,546
2022-12-12T13:04:11.818Z,555
2022-12-12T13:05:11.814Z,555
2022-12-12T13:06:11.817Z,555
2022-12-12T13:08:12.018Z,555
2022-12-12T13:09:11.807Z,483
2022-12-12T13:10:12.205Z,483
2022-12-12T13:11:11.783Z,483
2022-12-12T13:13:12.005Z,483
2022-12-12T13:14:11.782Z,530
2022-12-12T13:15:11.815Z,530
2022-12-12T13:16:11.893Z,530
2022-12-12T13:18:11.992Z,530
2022-12-12T13:19:11.837Z,508
2022-12-12T13:20:16.287Z,508
2022-12-12T13:21:11.823Z,508
2022-12-12T13:23:12.009Z,508
2022-12-12T13:24:11.794Z,520
2022-12-12T13:25:11.784Z,520
2022-12-12T13:26:11.803Z,520
2022-12-12T13:28:12.001Z,520
2022-12-12T13:29:11.828Z,483
2022-12-12T13:30:11.998Z,483
2022-12-12T13:31:13.134Z,483
2022-12-12T13:33:11.995Z,483
2022-12-12T13:34:11.804Z,483
2022-12-12T13:35:12.008Z,483
2022-12-12T13:36:11.815Z,483
2022-12-12T13:38:11.993Z,483
2022-12-12T13:39:11.827Z,483
2022-12-12T13:40:12.209Z,483
2022-12-12T13:41:11.801Z,483
2022-12-12T13:43:11.976Z,483
2022-12-12T13:44:11.826Z,537
2022-12-12T13:45:11.964Z,537
2022-12-12T13:46:11.842Z,537
2022-12-12T13:48:11.989Z,537
2022-12-12T13:49:11.806Z,476
2022-12-12T13:50:12.186Z,476
2022-12-12T13:51:11.819Z,476
2022-12-12T13:53:12.016Z,476
2022-12-12T13:54:13.540Z,492
2022-12-12T13:55:11.811Z,492
2022-12-12T13:56:11.832Z,492
2022-12-12T13:58:11.996Z,492
2022-12-12T13:59:11.813Z,442
2022-12-12T14:00:12.032Z,442
2022-12-12T14:01:11.871Z,442
2022-12-12T14:03:12.116Z,442
2022-12-12T14:04:11.846Z,442
2022-12-12T14:05:11.810Z,442
2022-12-12T14:06:11.830Z,442
2022-12-12T14:08:12.111Z,442
2022-12-12T14:09:11.842Z,442
2022-12-12T14:10:12.162Z,442
2022-12-12T14:11:13.988Z,442
2022-12-12T14:13:12.044Z,442
2022-12-12T14:14:11.833Z,416
2022-12-12T14:15:12.179Z,416
2022-12-12T14:16:11.912Z,416
2022-12-12T14:18:12.034Z,416
2022-12-12T14:19:11.824Z,402
2022-12-12T14:20:12.044Z,402
2022-12-12T14:21:11.844Z,402
2022-12-12T14:23:11.995Z,402
2022-12-12T14:24:11.875Z,442
2022-12-12T14:25:11.844Z,442
2022-12-12T14:26:11.840Z,442
2022-12-12T14:28:12.017Z,442
2022-12-12T14:29:11.846Z,530
2022-12-12T14:30:12.208Z,530
2022-12-12T14:31:11.873Z,530
2022-12-12T14:33:12.007Z,530
2022-12-12T14:34:11.820Z,476
2022-12-12T14:35:11.843Z,476
2022-12-12T14:36:11.822Z,476
2022-12-12T14:38:12.023Z,476
2022-12-12T14:39:11.827Z,492
2022-12-12T14:40:12.128Z,492
2022-12-12T14:41:11.835Z,492
2022-12-12T14:43:16.152Z,492
2022-12-12T14:44:36.025Z,537
2022-12-12T14:45:11.828Z,537
2022-12-12T14:46:11.856Z,537
2022-12-12T14:48:12.003Z,537
2022-12-12T14:49:11.830Z,537
2022-12-12T14:50:11.977Z,537
2022-12-12T14:51:11.868Z,537
2022-12-12T14:53:12.023Z,537
2022-12-12T14:54:11.846Z,483
2022-12-12T14:55:11.829Z,483
2022-12-12T14:56:11.854Z,483
2022-12-12T14:58:12.005Z,483
2022-12-12T14:59:11.858Z,442
2022-12-12T15:00:12.057Z,442
2022-12-12T15:01:11.821Z,442
2022-12-12T15:03:12.102Z,442
2022-12-12T15:04:11.835Z,546
2022-12-12T15:05:11.840Z,546
2022-12-12T15:06:11.824Z,546
2022-12-12T15:08:12.057Z,546
2022-12-12T15:09:11.823Z,492
2022-12-12T15:10:13.698Z,492
2022-12-12T15:11:11.847Z,492
2022-12-12T15:13:12.023Z,492
2022-12-12T15:14:11.853Z,546
2022-12-12T15:15:11.825Z,546
2022-12-12T15:16:11.938Z,546
2022-12-12T15:18:12.037Z,546
2022-12-12T15:19:11.864Z,508
2022-12-12T15:20:11.959Z,508
2022-12-12T15:21:11.837Z,508
2022-12-12T15:23:12.051Z,508
2022-12-12T15:24:11.847Z,501
2022-12-12T15:25:11.831Z,501
2022-12-12T15:26:11.863Z,501
2022-12-12T15:28:12.020Z,501
2022-12-12T15:29:11.868Z,501
2022-12-12T15:30:12.087Z,501
2022-12-12T15:31:11.929Z,501
2022-12-12T15:33:12.043Z,501
2022-12-12T15:34:11.847Z,501
2022-12-12T15:35:11.921Z,501
2022-12-12T15:36:11.845Z,501
2022-12-12T15:38:12.058Z,501
2022-12-12T15:39:11.831Z,501
2022-12-12T15:40:12.084Z,501
2022-12-12T15:41:13.673Z,501
2022-12-12T15:43:12.016Z,501
2022-12-12T15:44:11.861Z,508
2022-12-12T15:45:11.850Z,508
2022-12-12T15:46:11.887Z,508
2022-12-12T15:48:12.052Z,508
2022-12-12T15:49:11.847Z,501
2022-12-12T15:50:12.040Z,501
2022-12-12T15:51:11.877Z,501
2022-12-12T15:53:12.032Z,501
2022-12-12T15:54:11.856Z,508